Herbert J Plaisance — WDE6917 — position and weather

sailwx.info

Track history (hours):
 
Tides and Currents Weather Stations Pressure Air Temp Water Temp Dewpoint Dewpoint Depression Visibility Wind Speed Wind Dir Waves Ship Positions

Herbert J Plaisance

Owner: S & B Marine LLC, Harvey, LA. More information available from US FCC via Universal Licensing System and Coast Guard Vessel Documentation Center.

Last reported at 2017-Jun-10 15:45 UTC. Time now 2017-Jun-25 07:09 UTC.
Position N 30°24' W 086°54'.
Warning: this ship's position is 14 days out of date.

Length 20 m; draft 3 m.

Type: Towing. MMSI: 367386576.

Date/timePositionNaut miles runAvg speedWind from/ knotsBaromVisibWave heightAir tempDewpointWater temp
2017-Jun-10 15:45N 30°24' W 086°54'2 6.2
2017-Jun-10 15:28N 30°24' W 086°52'3 6.1
2017-Jun-10 14:58N 30°24' W 086°49'  
2017-Jun-04 22:17N 30°26' W 086°19'2 6.8
2017-Jun-04 22:00N 30°26' W 086°21'3 6.7
2017-Jun-04 21:30N 30°26' W 086°25'3 6.7
2017-Jun-04 21:00N 30°26' W 086°29'4 6.9
2017-Jun-04 20:29N 30°24' W 086°33'3 5.4
2017-Jun-04 20:00N 30°24' W 086°36'7 5.9
2017-Jun-04 18:45N 30°24' W 086°44'2 6.3
2017-Jun-04 18:29N 30°24' W 086°46'3 6.3
2017-Jun-04 17:57N 30°24' W 086°50'  
Track history (hours):
 
Tides and Currents Weather Stations Pressure Air Temp Water Temp Dewpoint Dewpoint Depression Visibility Wind Speed Wind Dir Waves Ship Positions

Herbert J Plaisance

Owner: S & B Marine LLC, Harvey, LA. More information available from US FCC via Universal Licensing System and Coast Guard Vessel Documentation Center.

Last reported at 2017-Jun-10 15:45 UTC. Time now 2017-Jun-25 07:09 UTC.
Position N 30°24' W 086°54'.
Warning: this ship's position is 14 days out of date.

Length 20 m; draft 3 m.

Type: Towing. MMSI: 367386576.

Date/timePositionNaut miles runAvg speedWind from/ knotsBaromVisibWave heightAir tempDewpointWater temp
2017-Jun-10 15:45N 30°24' W 086°54'2 6.2
2017-Jun-10 15:28N 30°24' W 086°52'3 6.1
2017-Jun-10 14:58N 30°24' W 086°49'  
2017-Jun-04 22:17N 30°26' W 086°19'2 6.8
2017-Jun-04 22:00N 30°26' W 086°21'3 6.7
2017-Jun-04 21:30N 30°26' W 086°25'3 6.7
2017-Jun-04 21:00N 30°26' W 086°29'4 6.9
2017-Jun-04 20:29N 30°24' W 086°33'3 5.4
2017-Jun-04 20:00N 30°24' W 086°36'7 5.9
2017-Jun-04 18:45N 30°24' W 086°44'2 6.3
2017-Jun-04 18:29N 30°24' W 086°46'3 6.3
2017-Jun-04 17:57N 30°24' W 086°50'  

Dump ship's entire track history